Time;durP1;ratioP1;P1;durP2;ratioP2;P2;SDS_P1;SDS_P2;PMS_P1;PMS_P2;Temp;Humidity;BMP_temperature;BMP_pressure;BME280_temperature;BME280_humidity;BME280_pressure;Samples;Min_cycle;Max_cycle;Signal;HPM_P1;HPM_P2
2023/09/13 00:03:25;;;;;;;7.07;4.60;;;;;;;21.69;71.61;100576.78;10365028;28;97421;-83
2023/09/13 00:08:30;;;;;;;;;;;;;;;21.45;73.25;100581.38;10333860;28;97010;-85
2023/09/13 00:13:38;;;;;;;7.07;4.45;;;;;;;21.47;72.13;100574.06;10332314;28;96768;-85
2023/09/13 00:18:43;;;;;;;7.45;5.00;;;;;;;21.31;72.75;100578.97;10331758;28;96711;-85
2023/09/13 00:23:48;;;;;;;6.57;4.30;;;;;;;21.32;72.74;100580.66;10333272;28;97123;-85
2023/09/13 00:28:55;;;;;;;6.30;4.22;;;;;;;21.30;72.65;100582.59;10372670;28;96942;-84
2023/09/13 00:34:01;;;;;;;6.18;4.03;;;;;;;21.30;72.70;100577.25;10415329;28;97541;-83
2023/09/13 00:39:05;;;;;;;7.10;4.28;;;;;;;21.17;73.26;100582.69;10367542;28;96823;-84
2023/09/13 00:44:11;;;;;;;;;;;;;;;21.12;74.70;100575.97;10332197;28;96561;-82
2023/09/13 00:49:17;;;;;;;5.72;3.78;;;;;;;21.05;73.46;100575.59;10333583;28;96964;-84
2023/09/13 00:54:21;;;;;;;5.70;3.75;;;;;;;21.02;73.85;100572.28;10332425;28;97309;-84
2023/09/13 00:59:27;;;;;;;6.05;4.38;;;;;;;21.02;73.81;100572.28;10352156;28;96856;-83
2023/09/13 01:04:34;;;;;;;7.65;4.85;;;;;;;21.07;73.76;100579.00;10371696;28;97500;-85
2023/09/13 01:09:41;;;;;;;7.40;4.47;;;;;;;21.08;73.67;100567.34;10372106;28;96910;-82
2023/09/13 01:14:49;;;;;;;5.70;3.67;;;;;;;20.92;74.50;100569.50;10335271;28;96593;-84
2023/09/13 01:20:03;;;;;;;7.22;4.50;;;;;;;20.90;74.44;100566.06;10331086;28;97339;-85
2023/09/13 01:25:33;;;;;;;;;;;;;;;20.85;74.94;100560.22;10332072;28;97144;-84
2023/09/13 01:30:41;;;;;;;5.80;3.95;;;;;;;20.83;74.50;100564.84;10336759;28;96956;-84
2023/09/13 01:35:46;;;;;;;5.95;4.05;;;;;;;20.68;75.20;100563.34;10352875;28;97110;-85
2023/09/13 01:40:53;;;;;;;4.93;3.60;;;;;;;20.59;75.15;100564.03;10372111;28;97654;-85
2023/09/13 01:46:00;;;;;;;7.35;4.35;;;;;;;20.59;75.78;100553.34;10357757;28;96929;-85
2023/09/13 01:51:05;;;;;;;6.57;4.65;;;;;;;20.52;76.27;100553.91;10329880;28;96723;-85
2023/09/13 01:56:10;;;;;;;6.60;4.60;;;;;;;20.48;76.41;100555.97;10328793;28;96593;-83
2023/09/13 02:01:17;;;;;;;6.20;4.40;;;;;;;20.31;77.01;100567.94;10364655;28;96856;-84
2023/09/13 02:06:22;;;;;;;5.85;4.13;;;;;;;20.28;77.13;100569.94;10329574;28;96707;-87
2023/09/13 02:11:29;;;;;;;7.32;4.10;;;;;;;20.29;77.20;100560.97;10329716;28;96629;-87
2023/09/13 02:16:37;;;;;;;7.40;4.30;;;;;;;20.27;77.22;100558.41;10329513;28;96721;-85
2023/09/13 02:21:41;;;;;;;5.50;4.07;;;;;;;20.26;78.05;100559.38;10329824;28;96946;-86
2023/09/13 02:26:45;;;;;;;7.50;4.63;;;;;;;20.21;78.08;100558.88;10329112;28;97011;-85
2023/09/13 02:31:54;;;;;;;5.53;4.00;;;;;;;20.23;78.96;100564.09;10361368;28;96779;-86
2023/09/13 02:37:00;;;;;;;5.95;4.07;;;;;;;20.28;77.92;100568.16;10356206;28;96692;-84
2023/09/13 02:42:06;;;;;;;6.43;4.45;;;;;;;20.26;78.30;100561.19;10332395;28;97182;-86
2023/09/13 02:47:13;;;;;;;6.07;4.25;;;;;;;20.24;78.19;100563.97;10334462;28;97362;-85
2023/09/13 02:52:28;;;;;;;7.13;4.47;;;;;;;20.27;77.46;100554.91;10336100;28;96880;-85
2023/09/13 02:57:32;;;;;;;4.60;3.13;;;;;;;20.31;77.34;100554.56;10340120;28;97101;-85
2023/09/13 03:02:38;;;;;;;5.20;3.35;;;;;;;20.30;77.14;100552.03;10376627;28;97285;-86
2023/09/13 03:07:42;;;;;;;5.40;3.42;;;;;;;20.29;77.03;100540.44;10376190;28;96703;-85
2023/09/13 03:12:46;;;;;;;4.23;3.00;;;;;;;20.33;76.28;100544.63;10347778;28;97300;-84
2023/09/13 03:17:54;;;;;;;4.05;2.97;;;;;;;20.33;75.84;100539.28;10334751;28;97227;-85
2023/09/13 03:23:03;;;;;;;3.90;2.90;;;;;;;20.38;75.30;100539.78;10335227;28;96675;-87
2023/09/13 03:28:07;;;;;;;4.20;2.55;;;;;;;20.38;75.00;100534.44;10342417;28;96796;-86
2023/09/13 03:33:14;;;;;;;3.17;2.38;;;;;;;20.38;75.21;100543.44;10417051;28;97356;-85
2023/09/13 03:38:18;;;;;;;3.03;2.40;;;;;;;20.37;74.57;100542.56;10415710;28;96870;-83
2023/09/13 03:43:22;;;;;;;3.67;2.65;;;;;;;20.42;74.16;100545.75;10414655;28;96717;-84
2023/09/13 03:48:30;;;;;;;3.38;2.33;;;;;;;20.39;73.79;100546.81;10333410;28;96837;-83
2023/09/13 03:53:35;;;;;;;3.28;2.42;;;;;;;20.43;73.67;100550.13;10333231;28;96949;-83
2023/09/13 03:58:40;;;;;;;3.55;2.42;;;;;;;20.38;73.70;100545.13;10347399;28;97493;-86
2023/09/13 04:03:47;;;;;;;3.08;2.28;;;;;;;20.39;73.63;100541.47;10345380;28;96850;-84
2023/09/13 04:08:52;;;;;;;4.50;2.85;;;;;;;20.38;73.45;100538.09;10332796;28;96930;-85
2023/09/13 04:13:57;;;;;;;2.87;2.20;;;;;;;20.40;73.24;100537.00;10333137;28;96916;-84
2023/09/13 04:19:02;;;;;;;3.28;2.47;;;;;;;20.29;73.70;100536.91;10333004;28;96702;-86
2023/09/13 04:24:07;;;;;;;3.30;2.30;;;;;;;20.33;73.23;100541.97;10332205;28;97077;-84
2023/09/13 04:29:12;;;;;;;3.13;2.30;;;;;;;20.31;73.32;100549.22;10343835;28;97163;-84
2023/09/13 04:34:21;;;;;;;3.08;2.30;;;;;;;20.30;73.40;100544.00;10372619;28;96878;-86
2023/09/13 04:39:27;;;;;;;3.15;2.10;;;;;;;20.31;73.22;100546.56;10372816;28;96731;-85
2023/09/13 04:44:32;;;;;;;3.03;2.15;;;;;;;20.34;72.72;100551.66;10373444;28;97347;-84
2023/09/13 04:49:38;;;;;;;3.45;2.13;;;;;;;20.28;72.65;100548.56;10373079;28;97279;-83
2023/09/13 04:54:47;;;;;;;2.88;1.85;;;;;;;20.24;72.96;100544.41;10372198;28;96710;-86
2023/09/13 04:59:52;;;;;;;3.47;2.42;;;;;;;20.23;72.92;100550.75;10357217;22;96783;-86
2023/09/13 05:04:58;;;;;;;2.90;1.98;;;;;;;20.24;72.50;100555.97;10291186;28;96751;-84
2023/09/13 05:10:02;;;;;;;4.00;2.17;;;;;;;20.21;72.86;100558.00;10304643;28;96793;-86
2023/09/13 05:15:07;;;;;;;2.72;2.00;;;;;;;20.17;72.82;100557.38;10331189;28;96697;-84
2023/09/13 05:20:14;;;;;;;3.08;2.35;;;;;;;20.11;72.99;100555.19;10329967;28;97419;-84
2023/09/13 05:25:20;;;;;;;3.00;2.30;;;;;;;20.09;73.01;100561.59;10330464;28;96599;-86
2023/09/13 05:30:25;;;;;;;3.65;1.95;;;;;;;20.06;73.22;100560.03;10330406;28;97818;-85
2023/09/13 05:35:34;;;;;;;3.40;2.40;;;;;;;20.02;73.22;100568.34;10330311;28;96933;-84
2023/09/13 05:40:39;;;;;;;3.25;2.20;;;;;;;20.01;73.45;100566.66;10330114;28;96703;-85
2023/09/13 05:45:44;;;;;;;2.75;2.00;;;;;;;20.01;73.41;100566.66;10329988;28;96962;-84
2023/09/13 05:50:50;;;;;;;4.05;2.00;;;;;;;19.95;73.74;100569.75;10330341;28;96720;-85
2023/09/13 05:55:53;;;;;;;3.03;2.08;;;;;;;19.88;73.70;100563.16;10330818;28;97229;-84
2023/09/13 06:00:57;;;;;;;3.28;2.08;;;;;;;19.84;74.17;100570.53;10329059;28;96907;-86
2023/09/13 06:06:05;;;;;;;2.45;1.80;;;;;;;19.86;73.88;100567.75;10330356;28;97296;-85
2023/09/13 06:11:16;;;;;;;2.28;1.50;;;;;;;19.91;73.70;100579.81;10328797;28;97118;-84
2023/09/13 06:16:21;;;;;;;3.88;1.85;;;;;;;19.94;73.50;100576.91;10331752;28;96550;-86
2023/09/13 06:21:27;;;;;;;2.40;1.60;;;;;;;19.98;73.32;100585.56;10336239;28;96692;-85
2023/09/13 06:26:34;;;;;;;3.20;1.70;;;;;;;19.95;73.23;100588.47;10336521;28;97193;-84
2023/09/13 06:31:41;;;;;;;2.45;1.60;;;;;;;20.01;73.10;100588.03;10335957;28;96639;-85
2023/09/13 06:37:07;;;;;;;3.10;1.63;;;;;;;20.04;72.31;100593.16;10336287;28;97083;-84
2023/09/13 06:42:15;;;;;;;2.47;1.75;;;;;;;20.06;72.40;100601.91;10336019;28;97858;-84
2023/09/13 06:47:33;;;;;;;2.40;1.58;;;;;;;20.08;72.40;100618.69;10336480;28;97178;-86
2023/09/13 06:52:42;;;;;;;2.17;1.52;;;;;;;20.14;72.18;100615.53;10335285;28;96835;-84
2023/09/13 06:58:09;;;;;;;2.15;1.55;;;;;;;20.46;71.29;100610.53;10334985;28;97136;-85
2023/09/13 07:03:19;;;;;;;2.33;1.45;;;;;;;21.63;68.83;100616.56;10333863;28;96754;-83
2023/09/13 07:08:32;;;;;;;2.55;1.48;;;;;;;22.38;66.13;100621.13;10335025;28;96783;-83
2023/09/13 07:13:35;;;;;;;1.90;1.30;;;;;;;22.76;63.97;100615.25;10334880;28;96723;-84
2023/09/13 07:18:40;;;;;;;2.45;1.38;;;;;;;23.19;62.31;100626.75;10334485;28;97094;-84
2023/09/13 07:23:47;;;;;;;2.25;1.45;;;;;;;23.52;61.36;100634.59;10334895;28;96774;-83
2023/09/13 07:28:51;;;;;;;2.22;1.40;;;;;;;24.00;59.01;100635.69;10332802;28;96796;-85
2023/09/13 07:34:02;;;;;;;1.92;1.48;;;;;;;24.52;57.37;100635.41;10333615;28;96860;-84
2023/09/13 07:39:10;;;;;;;1.50;1.25;;;;;;;24.86;56.96;100637.69;10293748;28;97079;-87
2023/09/13 07:44:18;;;;;;;2.05;1.20;;;;;;;25.27;55.27;100634.72;10317756;28;96891;-85
2023/09/13 07:49:25;;;;;;;1.95;1.20;;;;;;;25.41;54.55;100640.50;10333876;28;96594;-87
2023/09/13 07:54:31;;;;;;;1.63;1.05;;;;;;;25.76;53.34;100637.16;10332835;28;97395;-86
2023/09/13 07:59:35;;;;;;;2.22;1.15;;;;;;;25.82;52.58;100637.41;10330099;28;96921;-85
2023/09/13 08:04:40;;;;;;;1.88;1.20;;;;;;;26.15;51.50;100635.09;10292263;28;96698;-85
2023/09/13 08:09:50;;;;;;;1.58;1.08;;;;;;;26.45;50.42;100640.22;10291684;28;97230;-87
2023/09/13 08:14:54;;;;;;;1.40;1.00;;;;;;;26.59;50.44;100640.53;10291744;28;96788;-85
2023/09/13 08:20:05;;;;;;;1.70;0.90;;;;;;;26.43;49.53;100634.97;10330603;28;96839;-86
2023/09/13 08:25:11;;;;;;;1.42;0.90;;;;;;;26.45;49.24;100638.38;10332663;28;97375;-86
2023/09/13 08:30:16;;;;;;;3.00;1.10;;;;;;;26.72;48.71;100642.84;10333131;28;97460;-84
2023/09/13 08:35:22;;;;;;;1.23;0.85;;;;;;;26.75;47.76;100639.84;10332765;28;96713;-85
2023/09/13 08:40:28;;;;;;;1.10;0.82;;;;;;;27.15;46.92;100648.34;10332073;28;96662;-86
2023/09/13 08:45:40;;;;;;;1.17;0.98;;;;;;;27.54;45.86;100648.81;10331360;28;97304;-87
2023/09/13 08:50:48;;;;;;;1.13;0.68;;;;;;;27.47;45.67;100645.03;10331933;28;97214;-84
2023/09/13 08:55:59;;;;;;;1.38;1.00;;;;;;;28.11;44.60;100656.25;10332436;28;96805;-86
2023/09/13 09:01:09;;;;;;;0.73;0.52;;;;;;;28.44;43.93;100651.81;10330610;28;97119;-88
2023/09/13 09:06:17;;;;;;;1.48;0.70;;;;;;;28.31;43.49;100660.41;10331438;28;96906;-86
2023/09/13 09:11:25;;;;;;;0.90;0.70;;;;;;;28.81;42.96;100661.19;10290512;28;96665;-85
2023/09/13 09:16:31;;;;;;;1.63;0.77;;;;;;;29.03;42.30;100651.59;10290365;28;96694;-85
2023/09/13 09:21:39;;;;;;;1.58;1.00;;;;;;;29.56;41.77;100653.78;10290823;28;97044;-86
2023/09/13 09:26:50;;;;;;;0.60;0.43;;;;;;;29.36;41.53;100657.88;10318640;28;97421;-86
2023/09/13 09:31:59;;;;;;;1.13;0.65;;;;;;;29.63;40.60;100654.78;10330885;28;97193;-85
2023/09/13 09:37:08;;;;;;;1.30;0.80;;;;;;;29.64;40.49;100654.63;10329793;28;97261;-86
2023/09/13 09:42:18;;;;;;;1.23;0.80;;;;;;;30.11;38.84;100643.81;10330252;28;96835;-85
2023/09/13 09:47:27;;;;;;;0.75;0.52;;;;;;;29.86;38.59;100653.91;10330074;28;97816;-85
2023/09/13 09:52:34;;;;;;;1.15;0.70;;;;;;;30.61;39.07;100652.38;10334216;28;96664;-86
2023/09/13 09:57:48;;;;;;;1.00;0.70;;;;;;;30.66;37.37;100652.69;10336763;28;96892;-85
2023/09/13 10:02:53;;;;;;;1.90;0.63;;;;;;;30.88;38.10;100648.31;10337203;28;96779;-87
2023/09/13 10:07:58;;;;;;;1.10;0.80;;;;;;;30.89;37.44;100655.44;10336807;28;97064;-86
2023/09/13 10:13:05;;;;;;;1.00;0.70;;;;;;;30.94;37.22;100643.00;10337818;28;96625;-86
2023/09/13 10:18:17;;;;;;;1.30;0.68;;;;;;;31.64;36.82;100646.28;10337076;28;96728;-86
2023/09/13 10:23:30;;;;;;;1.42;0.60;;;;;;;31.71;36.24;100647.25;10336454;28;98430;-85
2023/09/13 10:28:41;;;;;;;1.00;0.63;;;;;;;31.68;36.25;100649.50;10335718;28;96984;-86
2023/09/13 10:33:56;;;;;;;0.80;0.77;;;;;;;31.93;35.46;100632.72;10335896;28;96796;-85
2023/09/13 10:39:10;;;;;;;1.02;0.73;;;;;;;32.04;35.03;100637.69;10294881;28;96820;-85
2023/09/13 10:44:21;;;;;;;1.35;0.70;;;;;;;32.43;34.99;100631.91;10295087;28;97115;-86
2023/09/13 10:49:25;;;;;;;0.85;0.60;;;;;;;32.24;34.98;100633.34;10304844;28;96952;-84
2023/09/13 10:54:32;;;;;;;1.00;0.80;;;;;;;31.90;34.74;100633.09;10335602;28;96926;-86
2023/09/13 10:59:40;;;;;;;1.10;0.60;;;;;;;32.04;34.94;100626.81;10335311;28;96957;-86
2023/09/13 11:04:46;;;;;;;0.70;0.47;;;;;;;32.57;34.43;100627.47;10335901;28;96812;-85
2023/09/13 11:09:54;;;;;;;0.75;0.50;;;;;;;32.47;34.03;100619.59;10334865;28;97905;-84
2023/09/13 11:15:15;;;;;;;0.90;0.73;;;;;;;32.35;33.93;100623.88;10335302;28;96902;-86
2023/09/13 11:20:27;;;;;;;0.85;0.63;;;;;;;32.38;34.14;100602.53;10333863;28;96726;-86
2023/09/13 11:25:37;;;;;;;1.00;0.73;;;;;;;32.71;33.87;100602.03;10334701;28;97141;-86
2023/09/13 11:31:08;;;;;;;1.08;0.70;;;;;;;32.97;33.03;100594.97;10334262;28;96724;-86
2023/09/13 11:36:17;;;;;;;0.97;0.63;;;;;;;33.47;32.83;100594.78;10334381;28;97536;-85
2023/09/13 11:41:25;;;;;;;1.73;0.40;;;;;;;33.44;32.45;100586.16;10334030;28;96757;-86
2023/09/13 11:46:31;;;;;;;0.95;0.70;;;;;;;33.47;32.49;100580.28;10333857;28;97188;-85
2023/09/13 11:51:48;;;;;;;1.00;0.70;;;;;;;33.52;32.57;100566.88;10333711;28;96701;-85
2023/09/13 11:56:57;;;;;;;0.70;0.70;;;;;;;33.59;32.13;100562.28;10333950;28;98065;-86
2023/09/13 12:02:27;;;;;;;0.80;0.70;;;;;;;33.22;32.29;100554.47;10332977;28;96626;-84
2023/09/13 12:07:37;;;;;;;1.25;0.90;;;;;;;32.58;32.63;100541.94;10332586;28;96788;-86
2023/09/13 12:12:47;;;;;;;1.25;0.65;;;;;;;33.77;31.75;100538.03;10331002;28;96788;-86
2023/09/13 12:18:13;;;;;;;0.82;0.70;;;;;;;33.76;31.37;100524.59;10332618;28;96689;-86
2023/09/13 12:23:19;;;;;;;0.98;0.60;;;;;;;33.58;31.56;100529.75;10332671;28;96716;-86
2023/09/13 12:28:27;;;;;;;0.85;0.60;;;;;;;33.10;31.83;100526.06;10332013;28;97727;-85
2023/09/13 12:33:37;;;;;;;0.70;0.50;;;;;;;33.40;31.85;100514.75;10332100;28;96737;-85
2023/09/13 12:38:50;;;;;;;1.73;0.70;;;;;;;33.19;32.02;100503.06;10331908;28;97351;-86
2023/09/13 12:43:54;;;;;;;0.63;0.57;;;;;;;33.02;32.49;100498.97;10332169;28;97426;-84
2023/09/13 12:49:04;;;;;;;0.77;0.68;;;;;;;32.88;32.36;100497.16;10332407;28;97065;-83
2023/09/13 12:54:12;;;;;;;1.05;0.77;;;;;;;32.77;32.35;100481.31;10331759;28;96746;-86
2023/09/13 12:59:21;;;;;;;1.27;0.70;;;;;;;32.45;32.41;100490.88;10331160;28;97170;-86
2023/09/13 13:04:33;;;;;;;0.70;0.70;;;;;;;32.28;32.99;100486.69;10330247;28;97192;-86
2023/09/13 13:09:38;;;;;;;0.93;0.55;;;;;;;32.45;32.71;100470.97;10330747;28;96950;-84
2023/09/13 13:14:50;;;;;;;0.85;0.70;;;;;;;32.54;32.90;100473.34;10330688;28;96743;-86
2023/09/13 13:19:59;;;;;;;0.60;0.50;;;;;;;32.10;33.03;100468.06;10331175;28;97212;-85
2023/09/13 13:25:24;;;;;;;1.02;0.60;;;;;;;32.81;31.96;100464.34;10329035;28;97205;-84
2023/09/13 13:30:33;;;;;;;1.30;0.80;;;;;;;32.60;32.72;100458.09;10330722;28;97371;-84
2023/09/13 13:35:39;;;;;;;0.80;0.50;;;;;;;32.47;32.42;100450.66;10317512;28;96732;-85
2023/09/13 13:40:43;;;;;;;1.15;0.80;;;;;;;32.33;32.33;100438.81;10309990;28;96867;-86
2023/09/13 13:45:48;;;;;;;0.80;0.60;;;;;;;32.03;32.73;100430.94;10330204;28;97107;-85
2023/09/13 13:50:56;;;;;;;0.80;0.60;;;;;;;31.56;33.64;100419.69;10330161;28;97545;-85
2023/09/13 13:56:01;;;;;;;1.15;0.75;;;;;;;31.43;34.00;100412.22;10328401;28;97321;-86
2023/09/13 14:01:05;;;;;;;0.82;0.68;;;;;;;31.44;34.27;100397.59;10330096;28;96557;-85
2023/09/13 14:06:14;;;;;;;1.20;0.68;;;;;;;31.11;34.47;100401.72;10329429;28;98723;-84
2023/09/13 14:11:20;;;;;;;1.30;0.63;;;;;;;30.96;34.95;100399.00;10329583;28;96631;-85
2023/09/13 14:16:27;;;;;;;1.02;0.70;;;;;;;30.59;35.31;100393.63;10329136;28;96690;-85
2023/09/13 14:21:35;;;;;;;1.10;0.57;;;;;;;30.78;34.79;100384.97;10329458;28;96740;-84
2023/09/13 14:26:39;;;;;;;0.73;0.60;;;;;;;30.53;34.80;100378.06;10329129;28;96815;-84
2023/09/13 14:31:46;;;;;;;1.05;0.70;;;;;;;30.40;34.58;100368.84;10329737;28;96783;-85
2023/09/13 14:36:54;;;;;;;0.80;0.55;;;;;;;30.35;34.54;100372.13;10330358;28;96941;-84
2023/09/13 14:41:58;;;;;;;2.20;0.85;;;;;;;30.43;34.64;100368.47;10335590;28;96883;-85
2023/09/13 14:47:02;;;;;;;0.85;0.60;;;;;;;30.57;34.47;100363.06;10334533;28;97055;-85
2023/09/13 14:52:13;;;;;;;0.77;0.70;;;;;;;30.44;34.67;100360.13;10335618;28;96600;-87
2023/09/13 14:57:19;;;;;;;0.75;0.60;;;;;;;30.51;34.29;100361.09;10335713;28;96603;-85
2023/09/13 15:02:29;;;;;;;1.45;0.80;;;;;;;30.46;34.31;100355.38;10334880;28;96646;-85
2023/09/13 15:07:36;;;;;;;1.15;0.57;;;;;;;30.58;33.81;100345.72;10334765;28;96754;-85
2023/09/13 15:12:44;;;;;;;1.38;0.70;;;;;;;30.73;34.02;100340.34;10334792;28;96805;-86
2023/09/13 15:17:53;;;;;;;1.08;0.60;;;;;;;30.57;34.09;100340.50;10335039;28;96755;-86
2023/09/13 15:23:00;;;;;;;1.10;0.70;;;;;;;30.65;33.65;100337.66;10335214;28;96714;-85
2023/09/13 15:28:08;;;;;;;0.80;0.60;;;;;;;30.60;33.54;100330.09;10334901;28;97445;-84
2023/09/13 15:33:12;;;;;;;1.30;0.80;;;;;;;30.62;32.61;100322.59;10334550;28;96974;-84
2023/09/13 15:38:19;;;;;;;0.88;0.45;;;;;;;30.75;32.87;100325.53;10332684;28;97037;-84
2023/09/13 15:43:24;;;;;;;1.02;0.60;;;;;;;30.61;32.59;100314.66;10334190;28;96777;-86
2023/09/13 15:48:29;;;;;;;0.60;0.50;;;;;;;30.66;32.59;100314.94;10332714;28;96590;-85
2023/09/13 15:53:38;;;;;;;0.75;0.60;;;;;;;30.56;33.30;100311.66;10333842;28;97750;-85
2023/09/13 15:58:43;;;;;;;0.90;0.70;;;;;;;30.48;33.64;100309.00;10332938;28;97067;-84
2023/09/13 16:03:49;;;;;;;1.35;0.60;;;;;;;30.34;33.58;100297.09;10333107;28;96818;-85
2023/09/13 16:08:55;;;;;;;0.88;0.52;;;;;;;30.32;33.61;100295.63;10332902;28;97498;-85
2023/09/13 16:14:04;;;;;;;0.70;0.60;;;;;;;30.17;33.28;100293.72;10334040;28;96647;-85
2023/09/13 16:19:08;;;;;;;0.70;0.50;;;;;;;30.06;33.55;100291.44;10332734;28;96701;-85
2023/09/13 16:24:14;;;;;;;1.17;0.60;;;;;;;29.90;33.37;100286.13;10332559;28;96860;-85
2023/09/13 16:29:20;;;;;;;0.70;0.50;;;;;;;29.90;33.56;100286.13;10331172;28;97145;-85
2023/09/13 16:34:28;;;;;;;1.05;0.60;;;;;;;29.95;33.73;100281.00;10330140;28;97181;-84
2023/09/13 16:39:35;;;;;;;0.63;0.50;;;;;;;29.83;33.68;100281.66;10291035;28;96812;-86
2023/09/13 16:44:40;;;;;;;1.58;0.80;;;;;;;29.77;33.82;100285.06;10291155;28;96913;-85
2023/09/13 16:49:44;;;;;;;2.17;0.82;;;;;;;29.72;33.60;100279.34;10328579;28;96884;-84
2023/09/13 16:54:55;;;;;;;1.05;0.65;;;;;;;29.66;33.29;100274.69;10331589;28;97378;-85
2023/09/13 17:00:02;;;;;;;0.73;0.50;;;;;;;29.66;32.97;100280.09;10330987;28;96695;-85
2023/09/13 17:05:08;;;;;;;0.70;0.60;;;;;;;29.60;33.36;100286.25;10332269;28;96712;-86
2023/09/13 17:10:16;;;;;;;1.30;0.70;;;;;;;29.58;33.38;100283.72;10331406;28;96776;-84
2023/09/13 17:15:21;;;;;;;0.65;0.50;;;;;;;29.50;33.89;100285.59;10331717;28;97053;-85
2023/09/13 17:20:31;;;;;;;1.30;0.60;;;;;;;29.44;33.71;100286.31;10330113;28;97178;-85
2023/09/13 17:25:40;;;;;;;0.77;0.60;;;;;;;29.40;33.80;100285.84;10331358;28;97319;-86
2023/09/13 17:30:47;;;;;;;1.00;0.65;;;;;;;29.35;33.85;100287.41;10332731;22;99041;-85
2023/09/13 17:35:53;;;;;;;0.57;0.50;;;;;;;29.27;34.11;100292.88;10330696;28;96751;-85
2023/09/13 17:40:59;;;;;;;0.95;0.50;;;;;;;29.19;33.88;100296.50;10329942;28;96774;-85
2023/09/13 17:46:07;;;;;;;1.05;0.55;;;;;;;29.15;34.00;100296.00;10330236;28;96848;-85
2023/09/13 17:51:14;;;;;;;0.57;0.50;;;;;;;29.10;34.05;100295.66;10330035;28;96595;-85
2023/09/13 17:56:23;;;;;;;1.00;0.63;;;;;;;29.08;34.33;100286.91;10330739;28;96948;-85
2023/09/13 18:01:31;;;;;;;1.30;0.80;;;;;;;28.99;35.87;100295.25;10329344;28;96603;-84
2023/09/13 18:06:37;;;;;;;0.82;0.65;;;;;;;28.81;36.88;100303.59;10329726;28;96716;-85
2023/09/13 18:11:46;;;;;;;0.90;0.68;;;;;;;28.55;38.53;100300.28;10329823;28;97090;-84
2023/09/13 18:16:50;;;;;;;1.40;1.00;;;;;;;28.39;39.11;100292.25;10337152;28;97306;-85
2023/09/13 18:21:58;;;;;;;1.45;0.77;;;;;;;28.32;39.08;100304.78;10336476;28;97389;-85
2023/09/13 18:27:07;;;;;;;1.40;0.80;;;;;;;28.17;40.16;100311.03;10336124;28;96700;-85
2023/09/13 18:32:13;;;;;;;1.20;0.88;;;;;;;27.97;40.95;100310.53;10335624;28;96864;-85
2023/09/13 18:37:19;;;;;;;4.03;2.60;;;;;;;27.77;41.48;100307.31;10335780;28;96864;-85
2023/09/13 18:42:31;;;;;;;3.30;2.40;;;;;;;27.61;41.82;100323.53;10336380;28;96703;-85
2023/09/13 18:47:36;;;;;;;2.72;1.77;;;;;;;27.45;42.43;100322.63;10336325;28;97321;-85
2023/09/13 18:52:40;;;;;;;2.72;1.60;;;;;;;27.15;43.64;100331.38;10336494;28;97314;-86
2023/09/13 18:57:49;;;;;;;2.72;1.70;;;;;;;26.95;44.78;100337.00;10335127;28;96815;-86
2023/09/13 19:02:55;;;;;;;1.90;1.40;;;;;;;26.68;45.36;100334.50;10334067;28;97370;-85
2023/09/13 19:08:02;;;;;;;1.98;1.30;;;;;;;26.65;45.50;100342.94;10331325;28;97082;-85
2023/09/13 19:13:09;;;;;;;2.38;1.25;;;;;;;26.50;46.14;100346.38;10293791;28;96710;-86
2023/09/13 19:18:13;;;;;;;2.72;1.40;;;;;;;26.19;47.50;100356.78;10293743;28;97026;-86
2023/09/13 19:23:23;;;;;;;4.55;1.60;;;;;;;26.19;46.95;100362.19;10293910;28;96885;-86
2023/09/13 19:28:32;;;;;;;2.75;1.50;;;;;;;25.90;48.61;100361.59;10292747;28;97082;-86
2023/09/13 19:33:38;;;;;;;1.67;1.20;;;;;;;26.02;48.24;100375.69;10293358;28;97583;-86
2023/09/13 19:38:44;;;;;;;2.28;1.38;;;;;;;26.00;48.65;100394.72;10328916;28;96774;-85
2023/09/13 19:43:52;;;;;;;1.50;1.23;;;;;;;25.55;49.60;100394.75;10333907;28;96636;-86
2023/09/13 19:48:58;;;;;;;2.35;1.40;;;;;;;25.46;49.81;100402.91;10333365;28;97374;-85
2023/09/13 19:54:02;;;;;;;1.67;1.08;;;;;;;25.47;50.19;100409.97;10332351;28;96627;-86
2023/09/13 19:59:14;;;;;;;1.05;0.90;;;;;;;25.50;49.99;100415.91;10332630;28;96797;-86
2023/09/13 20:04:27;;;;;;;1.92;1.25;;;;;;;25.17;50.80;100426.47;10332842;28;96831;-86
2023/09/13 20:09:36;;;;;;;1.53;1.07;;;;;;;25.01;51.00;100437.03;10332766;28;96893;-85
2023/09/13 20:14:47;;;;;;;1.60;1.02;;;;;;;24.81;51.72;100428.13;10333044;28;96744;-86
2023/09/13 20:19:52;;;;;;;2.22;1.10;;;;;;;24.94;51.42;100442.13;10333669;28;97302;-86
2023/09/13 20:24:59;;;;;;;1.45;0.93;;;;;;;24.74;52.14;100446.72;10332669;28;96758;-86
2023/09/13 20:30:07;;;;;;;1.65;1.20;;;;;;;24.53;52.72;100442.53;10332814;28;96847;-86
2023/09/13 20:35:12;;;;;;;1.83;1.20;;;;;;;24.47;52.78;100441.25;10331844;28;97483;-85
2023/09/13 20:40:16;;;;;;;2.55;1.48;;;;;;;24.53;52.73;100442.53;10332326;28;96795;-86
2023/09/13 20:45:23;;;;;;;1.88;1.23;;;;;;;24.67;52.23;100442.91;10331188;28;96961;-86
2023/09/13 20:50:31;;;;;;;1.75;1.00;;;;;;;24.59;52.67;100448.19;10331853;28;97414;-86
2023/09/13 20:55:36;;;;;;;1.67;1.00;;;;;;;24.29;53.12;100448.34;10332211;28;96745;-85
2023/09/13 21:00:42;;;;;;;1.88;1.23;;;;;;;24.21;53.90;100450.88;10331436;28;96786;-86
2023/09/13 21:05:47;;;;;;;1.67;1.00;;;;;;;24.33;53.79;100455.16;10331741;28;96719;-86
2023/09/13 21:10:54;;;;;;;1.65;1.10;;;;;;;24.22;54.09;100446.34;10331330;28;96801;-86
2023/09/13 21:16:11;;;;;;;;;;;;;;;;;;;;;
2023/09/13 21:21:17;;;;;;;1.88;1.30;;;;;;;24.22;54.18;100452.56;10326142;28;97647;-86
2023/09/13 21:26:22;;;;;;;1.80;1.08;;;;;;;24.23;54.24;100448.91;10331207;28;96744;-85
2023/09/13 21:31:28;;;;;;;1.75;1.20;;;;;;;24.04;54.38;100446.22;10330539;28;97028;-86
2023/09/13 21:36:36;;;;;;;2.03;1.20;;;;;;;24.02;54.89;100448.19;10329911;28;97029;-85
2023/09/13 21:41:42;;;;;;;1.83;1.27;;;;;;;23.59;56.15;100455.78;10330663;28;96815;-85
2023/09/13 21:46:52;;;;;;;1.45;1.00;;;;;;;23.73;56.08;100458.91;10331821;28;96752;-86
2023/09/13 21:51:56;;;;;;;1.83;1.15;;;;;;;23.72;56.11;100460.91;10338278;28;97579;-85
2023/09/13 21:57:04;;;;;;;1.67;1.25;;;;;;;23.68;56.10;100458.47;10337323;28;97123;-86
2023/09/13 22:02:13;;;;;;;1.70;1.00;;;;;;;23.65;56.35;100450.69;10337372;28;97446;-86
2023/09/13 22:07:24;;;;;;;1.30;1.10;;;;;;;23.73;56.31;100451.84;10330408;28;98074;-86
2023/09/13 22:12:37;;;;;;;1.60;0.93;;;;;;;23.64;56.36;100461.59;10337347;28;97174;-86
2023/09/13 22:17:46;;;;;;;2.45;1.00;;;;;;;23.52;57.15;100455.47;10336668;28;97138;-86
2023/09/13 22:22:51;;;;;;;1.83;1.20;;;;;;;23.44;57.37;100455.28;10336871;28;96719;-86
2023/09/13 22:27:59;;;;;;;2.40;1.50;;;;;;;23.25;58.41;100457.91;10334400;28;97381;-86
2023/09/13 22:33:08;;;;;;;1.92;1.10;;;;;;;23.16;59.00;100457.88;10336281;28;96589;-86
2023/09/13 22:38:17;;;;;;;1.85;1.40;;;;;;;22.96;59.75;100450.72;10333838;28;96826;-86
2023/09/13 22:43:21;;;;;;;2.03;1.30;;;;;;;22.88;59.72;100461.28;10336133;28;96727;-86
2023/09/13 22:48:28;;;;;;;;;;;;;;;22.80;60.32;100461.94;10336396;28;97096;-87
2023/09/13 22:53:35;;;;;;;2.05;1.30;;;;;;;22.65;60.75;100457.88;10336589;28;96661;-86
2023/09/13 22:58:39;;;;;;;1.55;1.02;;;;;;;22.53;61.17;100454.41;10334851;28;96755;-85
2023/09/13 23:03:45;;;;;;;;;;;;;;;22.42;63.35;100462.50;10336715;28;96630;-85
2023/09/13 23:08:50;;;;;;;1.48;0.98;;;;;;;22.36;61.80;100446.97;10335336;28;97506;-86
2023/09/13 23:13:58;;;;;;;1.48;1.05;;;;;;;22.31;62.07;100449.19;10335634;28;97528;-86
2023/09/13 23:19:05;;;;;;;2.22;1.15;;;;;;;22.32;61.84;100450.00;10333722;28;96761;-86
2023/09/13 23:24:15;;;;;;;2.13;1.30;;;;;;;22.14;62.67;100451.59;10334901;28;97052;-85
2023/09/13 23:29:22;;;;;;;1.60;1.00;;;;;;;22.08;62.84;100452.94;10333811;28;96917;-86
2023/09/13 23:34:30;;;;;;;2.20;1.30;;;;;;;21.98;63.44;100456.47;10334078;28;96806;-86
2023/09/13 23:39:34;;;;;;;4.03;1.20;;;;;;;22.01;63.31;100459.78;10334412;28;96773;-85